Terminal Aerodrome Forecast
Issued by NWS

Home | Current Version | Previous Version | Text Only | Print | Product List | Glossary On
Versions: 1 2 3 4 5 6 7 8 9 10 11 12
000
FTUS43 KOAX 022300
TAFBFF
TAF
KBFF 022325Z 0300/0324 22010KT P6SM SKC
     FM030200 12007KT P6SM FEW200
     FM032000 24010KT P6SM FEW200=

USA.gov is the U.S. government's official web portal to all federal, state and local government web resources and services.